VABB/BOM METAR and TAF weather

Enter ICAO airport designator
Station Type Date Time Source
VABB METAR 2021/05/15 22:00 UTC NOAA

VABB 152200Z 04005KT 3000 HZ FEW012 SCT018 BKN090 30/26 Q0999 NOSIG


Station Type Date Time Source
VABB Decoded METAR 2021/05/15 22:00 UTC NOAA

Bombay / Santacruz, India (VABB) 19-07N 072-51E 14M
May 15, 2021 - 06:00 PM EDT / 2021.05.15 2200 UTC
Wind: from the NE (040 degrees) at 6 MPH (5 KT):0
Visibility: 1 mile(s):0
Sky conditions: mostly cloudy
Weather: haze
Temperature: 86 F (30 C)
Heat index: 99.3 F (37.4 C):1
Dew Point: 78 F (26 C)
Relative Humidity: 79%
Pressure (altimeter): 29.50 in. Hg (0999 hPa)
ob: VABB 152200Z 04005KT 3000 HZ FEW012 SCT018 BKN090 30/26 Q0999 NOSIG
cycle: 22

Station Type Date Time Source
VABB TAF 2021/05/15 18:04 UTC NOAA

TAF VABB 151700Z 1518/1624 35010KT 3000 HZ SCT020 SCT025 BKN100
TEMPO 1519/1524 03007G17KT 2000 -TSRA SCT015 FEW030CB BKN090
BECMG 1601/1603 07010KT 2500 -RA HZ
BECMG 1607/1609 35010G20KT 3000 HZ
BECMG 1613/1615 03007G17KT 2500 -RA
TEMPO 1615/1624 03020G30KT 0800 +TSRA +SHRA SCT008 SCT015 FEW030CB OVC080

Example: see airport list